Terminal Aerodrome Forecast
Issued by NWS

Current Version | Previous Version | Graphics & Text | Print | Product List | Glossary On
Versions: 1 2 3 4 5 6 7 8 9 10 11 12 13 14 15 16 17 18 19 20 21 22 23 24 25 26
442
FTUS41 KRNK 161720
TAFLWB
TAF
KLWB 161720Z 1618/1718 VRB03KT P6SM SCT060
     FM170600 00000KT 5SM BR FEW070 SCT100
     FM171200 00000KT P6SM SCT070 BKN100
     FM171400 VRB03KT P6SM VCSH FEW050 SCT090
     FM171700 21004KT P6SM VCTS SCT050CB BKN090=

USA.gov is the U.S. government's official web portal to all federal, state and local government web resources and services.